sensor_id;sensor_type;location;lat;lon;timestamp;pressure;altitude;pressure_sealevel;temperature;humidity
29461;BME280;16428;47.836;35.106;2023-03-19T00:00:55;101953.59;;;5.42;100.00
29461;BME280;16428;47.836;35.106;2023-03-19T00:03:22;101953.91;;;5.38;100.00
29461;BME280;16428;47.836;35.106;2023-03-19T00:05:51;101958.22;;;5.51;100.00
29461;BME280;16428;47.836;35.106;2023-03-19T00:08:19;101953.63;;;5.53;100.00
29461;BME280;16428;47.836;35.106;2023-03-19T00:10:49;101947.06;;;5.46;100.00
29461;BME280;16428;47.836;35.106;2023-03-19T00:13:17;101945.94;;;5.61;100.00
29461;BME280;16428;47.836;35.106;2023-03-19T00:15:50;101944.25;;;5.72;100.00
29461;BME280;16428;47.836;35.106;2023-03-19T00:18:18;101948.09;;;5.56;100.00
29461;BME280;16428;47.836;35.106;2023-03-19T00:20:46;101940.13;;;5.68;100.00
29461;BME280;16428;47.836;35.106;2023-03-19T00:23:13;101941.81;;;5.69;100.00
29461;BME280;16428;47.836;35.106;2023-03-19T00:25:41;101937.25;;;5.47;100.00
29461;BME280;16428;47.836;35.106;2023-03-19T00:28:09;101941.09;;;5.66;100.00
29461;BME280;16428;47.836;35.106;2023-03-19T00:30:37;101931.56;;;5.75;100.00
29461;BME280;16428;47.836;35.106;2023-03-19T00:33:05;101932.41;;;5.76;100.00
29461;BME280;16428;47.836;35.106;2023-03-19T00:35:32;101933.25;;;5.76;100.00
29461;BME280;16428;47.836;35.106;2023-03-19T00:38:02;101936.03;;;5.75;100.00
29461;BME280;16428;47.836;35.106;2023-03-19T00:40:29;101929.97;;;5.73;100.00
29461;BME280;16428;47.836;35.106;2023-03-19T00:42:57;101930.47;;;5.78;100.00
29461;BME280;16428;47.836;35.106;2023-03-19T00:45:29;101928.25;;;5.60;100.00
29461;BME280;16428;47.836;35.106;2023-03-19T00:47:57;101934.34;;;5.74;100.00
29461;BME280;16428;47.836;35.106;2023-03-19T00:50:25;101935.34;;;5.84;100.00
29461;BME280;16428;47.836;35.106;2023-03-19T00:52:56;101941.72;;;5.94;100.00
29461;BME280;16428;47.836;35.106;2023-03-19T00:55:24;101937.53;;;5.79;100.00
29461;BME280;16428;47.836;35.106;2023-03-19T00:57:54;101936.66;;;5.78;100.00
29461;BME280;16428;47.836;35.106;2023-03-19T01:00:22;101939.59;;;5.86;100.00
29461;BME280;16428;47.836;35.106;2023-03-19T01:02:51;101935.53;;;5.70;100.00
29461;BME280;16428;47.836;35.106;2023-03-19T01:05:19;101940.22;;;5.66;100.00
29461;BME280;16428;47.836;35.106;2023-03-19T01:07:46;101940.88;;;5.81;100.00
29461;BME280;16428;47.836;35.106;2023-03-19T01:10:17;101941.38;;;5.75;100.00
29461;BME280;16428;47.836;35.106;2023-03-19T01:12:44;101937.53;;;5.79;100.00
29461;BME280;16428;47.836;35.106;2023-03-19T01:15:12;101939.22;;;5.80;100.00
29461;BME280;16428;47.836;35.106;2023-03-19T01:17:40;101936.53;;;5.45;100.00
29461;BME280;16428;47.836;35.106;2023-03-19T01:20:09;101933.69;;;5.59;100.00
29461;BME280;16428;47.836;35.106;2023-03-19T01:22:41;101931.16;;;5.69;100.00
29461;BME280;16428;47.836;35.106;2023-03-19T01:25:11;101933.53;;;5.49;100.00
29461;BME280;16428;47.836;35.106;2023-03-19T01:27:39;101934.50;;;5.48;100.00
29461;BME280;16428;47.836;35.106;2023-03-19T01:30:07;101933.34;;;5.63;100.00
29461;BME280;16428;47.836;35.106;2023-03-19T01:32:44;101932.31;;;5.53;100.00
29461;BME280;16428;47.836;35.106;2023-03-19T01:35:12;101939.47;;;5.53;100.00
29461;BME280;16428;47.836;35.106;2023-03-19T01:37:40;101943.59;;;5.57;100.00
29461;BME280;16428;47.836;35.106;2023-03-19T01:40:11;101936.22;;;5.60;100.00
29461;BME280;16428;47.836;35.106;2023-03-19T01:45:30;101929.72;;;5.17;100.00
29461;BME280;16428;47.836;35.106;2023-03-19T01:47:58;101944.13;;;5.38;100.00
29461;BME280;16428;47.836;35.106;2023-03-19T01:50:39;101941.34;;;5.40;100.00
29461;BME280;16428;47.836;35.106;2023-03-19T01:53:11;101941.75;;;5.46;100.00
29461;BME280;16428;47.836;35.106;2023-03-19T01:55:46;101950.47;;;5.48;100.00
29461;BME280;16428;47.836;35.106;2023-03-19T01:58:14;101941.34;;;5.40;100.00
29461;BME280;16428;47.836;35.106;2023-03-19T02:00:42;101947.78;;;5.24;100.00
29461;BME280;16428;47.836;35.106;2023-03-19T02:03:09;101953.38;;;5.45;100.00
29461;BME280;16428;47.836;35.106;2023-03-19T02:05:40;101948.53;;;5.50;100.00
29461;BME280;16428;47.836;35.106;2023-03-19T02:08:15;101952.41;;;5.46;100.00
29461;BME280;16428;47.836;35.106;2023-03-19T02:10:45;101960.84;;;5.40;100.00
29461;BME280;16428;47.836;35.106;2023-03-19T02:13:13;101954.97;;;5.48;100.00
29461;BME280;16428;47.836;35.106;2023-03-19T02:15:41;101962.53;;;5.41;100.00
29461;BME280;16428;47.836;35.106;2023-03-19T02:18:10;101956.47;;;5.39;100.00
29461;BME280;16428;47.836;35.106;2023-03-19T02:21:12;101954.00;;;5.49;100.00
29461;BME280;16428;47.836;35.106;2023-03-19T02:24:01;101958.19;;;5.40;100.00
29461;BME280;16428;47.836;35.106;2023-03-19T02:26:30;101954.03;;;5.36;100.00
29461;BME280;16428;47.836;35.106;2023-03-19T02:28:58;101955.44;;;5.53;100.00
29461;BME280;16428;47.836;35.106;2023-03-19T02:31:26;101956.16;;;5.44;100.00
29461;BME280;16428;47.836;35.106;2023-03-19T02:33:58;101967.06;;;5.52;100.00
29461;BME280;16428;47.836;35.106;2023-03-19T02:36:39;101957.25;;;5.52;100.00
29461;BME280;16428;47.836;35.106;2023-03-19T02:39:22;101961.59;;;5.42;100.00
29461;BME280;16428;47.836;35.106;2023-03-19T02:41:54;101958.91;;;5.42;100.00
29461;BME280;16428;47.836;35.106;2023-03-19T02:44:23;101952.19;;;5.49;100.00
29461;BME280;16428;47.836;35.106;2023-03-19T02:46:52;101962.84;;;5.49;100.00
29461;BME280;16428;47.836;35.106;2023-03-19T02:49:19;101963.06;;;5.46;100.00
29461;BME280;16428;47.836;35.106;2023-03-19T02:51:47;101957.16;;;5.30;100.00
29461;BME280;16428;47.836;35.106;2023-03-19T02:54:14;101955.72;;;5.37;100.00
29461;BME280;16428;47.836;35.106;2023-03-19T02:56:42;101959.09;;;5.28;100.00
29461;BME280;16428;47.836;35.106;2023-03-19T02:59:13;101956.25;;;5.42;100.00
29461;BME280;16428;47.836;35.106;2023-03-19T03:01:41;101950.97;;;5.29;100.00
29461;BME280;16428;47.836;35.106;2023-03-19T03:04:09;101944.44;;;5.10;100.00
29461;BME280;16428;47.836;35.106;2023-03-19T03:06:45;101945.94;;;5.14;100.00
29461;BME280;16428;47.836;35.106;2023-03-19T03:09:13;101948.25;;;5.18;100.00
29461;BME280;16428;47.836;35.106;2023-03-19T03:11:40;101955.00;;;5.35;100.00
29461;BME280;16428;47.836;35.106;2023-03-19T03:14:11;101955.41;;;5.42;100.00
29461;BME280;16428;47.836;35.106;2023-03-19T03:16:38;101962.50;;;5.30;100.00
29461;BME280;16428;47.836;35.106;2023-03-19T03:19:06;101956.38;;;5.17;100.00
29461;BME280;16428;47.836;35.106;2023-03-19T03:21:35;101963.97;;;5.34;100.00
29461;BME280;16428;47.836;35.106;2023-03-19T03:24:03;101962.28;;;5.20;100.00
29461;BME280;16428;47.836;35.106;2023-03-19T03:26:30;101964.41;;;5.28;100.00
29461;BME280;16428;47.836;35.106;2023-03-19T03:28:58;101960.31;;;5.35;100.00
29461;BME280;16428;47.836;35.106;2023-03-19T03:31:25;101962.72;;;5.27;100.00
29461;BME280;16428;47.836;35.106;2023-03-19T03:34:00;101954.25;;;5.09;100.00
29461;BME280;16428;47.836;35.106;2023-03-19T03:36:28;101957.09;;;5.43;100.00
29461;BME280;16428;47.836;35.106;2023-03-19T03:38:55;101952.16;;;5.25;100.00
29461;BME280;16428;47.836;35.106;2023-03-19T03:41:23;101949.66;;;5.35;100.00
29461;BME280;16428;47.836;35.106;2023-03-19T03:43:51;101956.38;;;5.17;100.00
29461;BME280;16428;47.836;35.106;2023-03-19T03:46:24;101958.13;;;5.29;100.00
29461;BME280;16428;47.836;35.106;2023-03-19T03:48:52;101947.56;;;5.27;100.00
29461;BME280;16428;47.836;35.106;2023-03-19T03:51:19;101947.16;;;5.21;100.00
29461;BME280;16428;47.836;35.106;2023-03-19T03:53:48;101944.16;;;5.02;100.00
29461;BME280;16428;47.836;35.106;2023-03-19T03:56:16;101942.47;;;5.01;100.00
29461;BME280;16428;47.836;35.106;2023-03-19T03:58:43;101944.16;;;5.02;100.00
29461;BME280;16428;47.836;35.106;2023-03-19T04:01:14;101944.06;;;5.03;100.00
29461;BME280;16428;47.836;35.106;2023-03-19T04:03:42;101937.66;;;4.93;100.00
29461;BME280;16428;47.836;35.106;2023-03-19T04:06:15;101940.66;;;5.01;100.00
29461;BME280;16428;47.836;35.106;2023-03-19T04:08:43;101944.00;;;5.16;100.00
29461;BME280;16428;47.836;35.106;2023-03-19T04:11:11;101948.88;;;5.22;100.00
29461;BME280;16428;47.836;35.106;2023-03-19T04:13:42;101947.84;;;5.12;100.00
29461;BME280;16428;47.836;35.106;2023-03-19T04:16:09;101951.03;;;5.17;100.00
29461;BME280;16428;47.836;35.106;2023-03-19T04:18:37;101947.78;;;5.24;100.00
29461;BME280;16428;47.836;35.106;2023-03-19T04:21:06;101953.19;;;5.12;100.00
29461;BME280;16428;47.836;35.106;2023-03-19T04:23:36;101955.59;;;4.78;100.00
29461;BME280;16428;47.836;35.106;2023-03-19T04:26:04;101947.94;;;4.86;100.00
29461;BME280;16428;47.836;35.106;2023-03-19T04:28:34;101954.50;;;4.93;100.00
29461;BME280;16428;47.836;35.106;2023-03-19T04:31:06;101947.25;;;4.95;100.00
29461;BME280;16428;47.836;35.106;2023-03-19T04:33:35;101943.66;;;4.84;100.00
29461;BME280;16428;47.836;35.106;2023-03-19T04:36:03;101951.69;;;5.08;100.00
29461;BME280;16428;47.836;35.106;2023-03-19T04:38:31;101952.50;;;5.21;100.00
29461;BME280;16428;47.836;35.106;2023-03-19T04:41:04;101949.97;;;5.07;100.00
29461;BME280;16428;47.836;35.106;2023-03-19T04:43:31;101947.56;;;5.04;100.00
29461;BME280;16428;47.836;35.106;2023-03-19T04:45:59;101959.31;;;5.25;100.00
29461;BME280;16428;47.836;35.106;2023-03-19T04:48:28;101951.63;;;5.20;100.00
29461;BME280;16428;47.836;35.106;2023-03-19T04:50:55;101953.13;;;5.24;100.00
29461;BME280;16428;47.836;35.106;2023-03-19T04:53:23;101961.81;;;5.39;100.00
29461;BME280;16428;47.836;35.106;2023-03-19T04:55:51;101954.72;;;5.27;100.00
29461;BME280;16428;47.836;35.106;2023-03-19T04:58:19;101955.00;;;5.35;100.00
29461;BME280;16428;47.836;35.106;2023-03-19T05:00:47;101951.38;;;5.36;100.00
29461;BME280;16428;47.836;35.106;2023-03-19T05:03:15;101944.91;;;5.51;100.00
29461;BME280;16428;47.836;35.106;2023-03-19T05:05:42;101944.13;;;5.38;100.00
29461;BME280;16428;47.836;35.106;2023-03-19T05:08:10;101947.56;;;5.27;100.00
29461;BME280;16428;47.836;35.106;2023-03-19T05:10:38;101949.44;;;5.38;100.00
29461;BME280;16428;47.836;35.106;2023-03-19T05:13:06;101943.34;;;5.49;100.00
29461;BME280;16428;47.836;35.106;2023-03-19T05:15:34;101950.75;;;5.56;100.00
29461;BME280;16428;47.836;35.106;2023-03-19T05:18:02;101951.78;;;5.43;100.00
29461;BME280;16428;47.836;35.106;2023-03-19T05:20:32;101944.34;;;5.59;100.00
29461;BME280;16428;47.836;35.106;2023-03-19T05:23:00;101947.44;;;5.77;100.00
29461;BME280;16428;47.836;35.106;2023-03-19T05:25:27;101946.16;;;5.58;100.00
29461;BME280;16428;47.836;35.106;2023-03-19T05:27:56;101950.19;;;5.64;100.00
29461;BME280;16428;47.836;35.106;2023-03-19T05:30:23;101947.69;;;5.85;100.00
29461;BME280;16428;47.836;35.106;2023-03-19T05:32:57;101945.53;;;5.79;100.00
29461;BME280;16428;47.836;35.106;2023-03-19T05:35:27;101946.38;;;5.55;100.00
29461;BME280;16428;47.836;35.106;2023-03-19T05:37:55;101953.06;;;5.37;100.00
29461;BME280;16428;47.836;35.106;2023-03-19T05:40:23;101948.72;;;5.60;100.00
29461;BME280;16428;47.836;35.106;2023-03-19T05:42:51;101960.78;;;5.77;100.00
29461;BME280;16428;47.836;35.106;2023-03-19T05:45:21;101947.69;;;5.85;100.00
29461;BME280;16428;47.836;35.106;2023-03-19T05:47:50;101947.75;;;5.37;100.00
29461;BME280;16428;47.836;35.106;2023-03-19T05:50:17;101949.81;;;5.69;100.00
29461;BME280;16428;47.836;35.106;2023-03-19T05:52:45;101948.41;;;5.76;100.00
29461;BME280;16428;47.836;35.106;2023-03-19T05:55:12;101946.72;;;5.86;100.00
29461;BME280;16428;47.836;35.106;2023-03-19T05:57:39;101949.41;;;5.86;100.00
29461;BME280;16428;47.836;35.106;2023-03-19T06:00:08;101953.16;;;6.07;100.00
29461;BME280;16428;47.836;35.106;2023-03-19T06:02:36;101950.19;;;5.99;100.00
29461;BME280;16428;47.836;35.106;2023-03-19T06:05:09;101955.59;;;6.21;100.00
29461;BME280;16428;47.836;35.106;2023-03-19T06:07:38;101957.50;;;6.08;100.00
29461;BME280;16428;47.836;35.106;2023-03-19T06:10:06;101953.66;;;6.23;100.00
29461;BME280;16428;47.836;35.106;2023-03-19T06:12:35;101952.66;;;6.13;100.00
29461;BME280;16428;47.836;35.106;2023-03-19T06:15:04;101957.31;;;6.22;100.00
29461;BME280;16428;47.836;35.106;2023-03-19T06:17:34;101958.25;;;6.21;100.00
29461;BME280;16428;47.836;35.106;2023-03-19T06:20:02;101949.69;;;6.40;100.00
29461;BME280;16428;47.836;35.106;2023-03-19T06:22:31;101952.94;;;6.44;100.00
29461;BME280;16428;47.836;35.106;2023-03-19T06:24:58;101948.84;;;6.40;100.00
29461;BME280;16428;47.836;35.106;2023-03-19T06:27:25;101946.41;;;6.48;100.00
29461;BME280;16428;47.836;35.106;2023-03-19T06:29:53;101949.56;;;6.75;100.00
29461;BME280;16428;47.836;35.106;2023-03-19T06:32:25;101944.13;;;6.54;100.00
29461;BME280;16428;47.836;35.106;2023-03-19T06:34:53;101943.75;;;6.70;100.00
29461;BME280;16428;47.836;35.106;2023-03-19T06:37:22;101945.31;;;6.50;100.00
29461;BME280;16428;47.836;35.106;2023-03-19T06:39:49;101951.50;;;6.73;100.00
29461;BME280;16428;47.836;35.106;2023-03-19T06:42:17;101946.16;;;6.73;99.25
29461;BME280;16428;47.836;35.106;2023-03-19T06:44:45;101941.31;;;6.67;99.71
29461;BME280;16428;47.836;35.106;2023-03-19T06:47:14;101947.53;;;6.56;100.00
29461;BME280;16428;47.836;35.106;2023-03-19T06:49:41;101952.59;;;6.48;100.00
29461;BME280;16428;47.836;35.106;2023-03-19T06:52:09;101946.16;;;6.62;100.00
29461;BME280;16428;47.836;35.106;2023-03-19T06:54:37;101964.38;;;6.57;100.00
29461;BME280;16428;47.836;35.106;2023-03-19T06:57:05;101964.00;;;6.61;100.00
29461;BME280;16428;47.836;35.106;2023-03-19T06:59:35;101960.50;;;6.72;100.00
29461;BME280;16428;47.836;35.106;2023-03-19T07:02:03;101968.75;;;6.80;100.00
29461;BME280;16428;47.836;35.106;2023-03-19T07:04:31;101976.38;;;6.74;100.00
29461;BME280;16428;47.836;35.106;2023-03-19T07:07:00;101983.44;;;6.63;100.00
29461;BME280;16428;47.836;35.106;2023-03-19T07:09:29;101978.09;;;6.63;100.00
29461;BME280;16428;47.836;35.106;2023-03-19T07:11:56;101975.53;;;6.51;100.00
29461;BME280;16428;47.836;35.106;2023-03-19T07:14:28;101965.31;;;6.33;100.00
29461;BME280;16428;47.836;35.106;2023-03-19T07:16:56;101967.59;;;6.16;100.00
29461;BME280;16428;47.836;35.106;2023-03-19T07:19:24;101963.09;;;6.16;100.00
29461;BME280;16428;47.836;35.106;2023-03-19T07:21:51;101953.69;;;6.68;100.00
29461;BME280;16428;47.836;35.106;2023-03-19T07:24:19;101957.34;;;6.67;100.00
29461;BME280;16428;47.836;35.106;2023-03-19T07:26:46;101956.09;;;6.60;100.00
29461;BME280;16428;47.836;35.106;2023-03-19T07:29:15;101956.34;;;6.90;99.42
29461;BME280;16428;47.836;35.106;2023-03-19T07:31:43;101962.44;;;6.81;99.82
29461;BME280;16428;47.836;35.106;2023-03-19T07:34:13;101954.91;;;6.75;100.00
29461;BME280;16428;47.836;35.106;2023-03-19T07:36:40;101953.09;;;6.87;100.00
29461;BME280;16428;47.836;35.106;2023-03-19T07:39:08;101945.19;;;6.85;100.00
29461;BME280;16428;47.836;35.106;2023-03-19T07:41:36;101954.59;;;7.23;98.71
29461;BME280;16428;47.836;35.106;2023-03-19T07:44:04;101948.06;;;7.16;99.01
29461;BME280;16428;47.836;35.106;2023-03-19T07:46:32;101955.41;;;7.46;97.08
29461;BME280;16428;47.836;35.106;2023-03-19T07:49:00;101954.31;;;7.48;96.96
29461;BME280;16428;47.836;35.106;2023-03-19T07:51:27;101958.19;;;7.44;96.85
29461;BME280;16428;47.836;35.106;2023-03-19T07:53:56;101949.16;;;7.56;95.75
29461;BME280;16428;47.836;35.106;2023-03-19T07:56:24;101950.91;;;7.46;95.95
29461;BME280;16428;47.836;35.106;2023-03-19T07:58:52;101945.31;;;6.72;97.09
29461;BME280;16428;47.836;35.106;2023-03-19T08:01:19;101938.09;;;7.18;97.96
29461;BME280;16428;47.836;35.106;2023-03-19T08:03:47;101931.88;;;7.28;98.53
29461;BME280;16428;47.836;35.106;2023-03-19T08:06:15;101933.16;;;7.34;97.37
29461;BME280;16428;47.836;35.106;2023-03-19T08:08:45;101931.41;;;7.55;96.62
29461;BME280;16428;47.836;35.106;2023-03-19T08:11:12;101949.44;;;7.42;96.33
29461;BME280;16428;47.836;35.106;2023-03-19T08:13:40;101950.63;;;7.49;96.50
29461;BME280;16428;47.836;35.106;2023-03-19T08:16:12;101939.16;;;7.26;96.71
29461;BME280;16428;47.836;35.106;2023-03-19T08:18:40;101938.94;;;7.61;96.24
29461;BME280;16428;47.836;35.106;2023-03-19T08:21:08;101937.97;;;7.51;95.16
29461;BME280;16428;47.836;35.106;2023-03-19T08:23:39;101943.00;;;7.33;95.98
29461;BME280;16428;47.836;35.106;2023-03-19T08:26:06;101946.28;;;7.37;97.01
29461;BME280;16428;47.836;35.106;2023-03-19T08:28:39;101949.69;;;7.39;95.99
29461;BME280;16428;47.836;35.106;2023-03-19T08:31:10;101948.13;;;7.36;97.18
29461;BME280;16428;47.836;35.106;2023-03-19T08:33:38;101935.75;;;7.24;100.00
29461;BME280;16428;47.836;35.106;2023-03-19T08:36:10;101938.59;;;7.55;97.45
29461;BME280;16428;47.836;35.106;2023-03-19T08:38:38;101938.94;;;7.61;95.57
29461;BME280;16428;47.836;35.106;2023-03-19T08:41:11;101943.31;;;7.83;94.58
29461;BME280;16428;47.836;35.106;2023-03-19T08:43:39;101946.38;;;7.99;92.70
29461;BME280;16428;47.836;35.106;2023-03-19T08:46:07;101940.75;;;7.61;93.84
29461;BME280;16428;47.836;35.106;2023-03-19T08:48:36;101941.91;;;7.68;94.76
29461;BME280;16428;47.836;35.106;2023-03-19T08:51:07;101941.13;;;7.56;95.87
29461;BME280;16428;47.836;35.106;2023-03-19T08:53:36;101948.16;;;7.89;94.48
29461;BME280;16428;47.836;35.106;2023-03-19T08:56:05;101943.25;;;7.41;94.52
29461;BME280;16428;47.836;35.106;2023-03-19T08:58:40;101930.25;;;7.37;96.71
29461;BME280;16428;47.836;35.106;2023-03-19T09:01:11;101938.81;;;7.52;96.04
29461;BME280;16428;47.836;35.106;2023-03-19T09:03:41;101933.00;;;7.03;98.05
29461;BME280;16428;47.836;35.106;2023-03-19T09:06:11;101934.88;;;7.35;97.40
29461;BME280;16428;47.836;35.106;2023-03-19T09:08:58;101945.31;;;7.38;97.78
29461;BME280;16428;47.836;35.106;2023-03-19T09:11:25;101943.84;;;7.45;96.56
29461;BME280;16428;47.836;35.106;2023-03-19T09:13:55;101933.66;;;7.39;97.39
29461;BME280;16428;47.836;35.106;2023-03-19T09:16:23;101928.13;;;7.20;97.22
29461;BME280;16428;47.836;35.106;2023-03-19T09:18:55;101924.75;;;7.18;97.32
29461;BME280;16428;47.836;35.106;2023-03-19T09:21:25;101937.09;;;7.19;97.58
29461;BME280;16428;47.836;35.106;2023-03-19T09:23:55;101925.25;;;6.89;98.75
29461;BME280;16428;47.836;35.106;2023-03-19T09:26:22;101922.09;;;6.95;99.55
29461;BME280;16428;47.836;35.106;2023-03-19T09:28:49;101920.66;;;6.91;99.82
29461;BME280;16428;47.836;35.106;2023-03-19T09:31:26;101920.44;;;6.61;100.00
29461;BME280;16428;47.836;35.106;2023-03-19T09:33:56;101919.91;;;6.89;100.00
29461;BME280;16428;47.836;35.106;2023-03-19T09:36:24;101909.69;;;7.17;100.00
29461;BME280;16428;47.836;35.106;2023-03-19T09:38:51;101915.03;;;7.05;100.00
29461;BME280;16428;47.836;35.106;2023-03-19T09:41:31;101919.22;;;6.87;100.00
29461;BME280;16428;47.836;35.106;2023-03-19T09:44:15;101902.47;;;6.85;100.00
29461;BME280;16428;47.836;35.106;2023-03-19T09:46:51;101911.53;;;6.94;100.00
29461;BME280;16428;47.836;35.106;2023-03-19T09:49:25;101904.78;;;7.22;100.00
29461;BME280;16428;47.836;35.106;2023-03-19T09:52:29;101910.13;;;7.33;98.86
29461;BME280;16428;47.836;35.106;2023-03-19T09:57:47;101910.31;;;7.41;97.94
29461;BME280;16428;47.836;35.106;2023-03-19T10:00:24;101906.84;;;6.86;98.50
29461;BME280;16428;47.836;35.106;2023-03-19T10:03:10;101905.69;;;7.11;99.47
29461;BME280;16428;47.836;35.106;2023-03-19T10:15:02;101895.59;;;7.15;100.00
29461;BME280;16428;47.836;35.106;2023-03-19T10:18:02;101895.31;;;7.29;100.00
29461;BME280;16428;47.836;35.106;2023-03-19T10:26:16;101884.22;;;6.90;100.00
29461;BME280;16428;47.836;35.106;2023-03-19T10:28:54;101882.97;;;7.17;99.49
29461;BME280;16428;47.836;35.106;2023-03-19T10:31:25;101886.19;;;7.20;98.69
29461;BME280;16428;47.836;35.106;2023-03-19T10:36:33;101877.50;;;7.39;99.47
29461;BME280;16428;47.836;35.106;2023-03-19T10:39:02;101871.78;;;7.44;100.00
29461;BME280;16428;47.836;35.106;2023-03-19T10:44:29;101878.06;;;7.54;99.99
29461;BME280;16428;47.836;35.106;2023-03-19T10:46:58;101876.53;;;7.40;100.00
29461;BME280;16428;47.836;35.106;2023-03-19T10:49:26;101873.66;;;7.32;100.00
29461;BME280;16428;47.836;35.106;2023-03-19T10:51:56;101870.25;;;7.62;99.30
29461;BME280;16428;47.836;35.106;2023-03-19T10:54:26;101872.66;;;7.44;98.05
29461;BME280;16428;47.836;35.106;2023-03-19T10:56:58;101873.09;;;7.70;97.88
29461;BME280;16428;47.836;35.106;2023-03-19T11:01:58;101882.31;;;7.56;98.30
29461;BME280;16428;47.836;35.106;2023-03-19T11:04:30;101876.78;;;7.37;100.00
29461;BME280;16428;47.836;35.106;2023-03-19T11:07:10;101874.22;;;7.47;100.00
29461;BME280;16428;47.836;35.106;2023-03-19T11:09:48;101876.63;;;7.70;99.36
29461;BME280;16428;47.836;35.106;2023-03-19T11:12:31;101863.09;;;6.98;100.00
29461;BME280;16428;47.836;35.106;2023-03-19T11:15:00;101871.75;;;7.23;100.00
29461;BME280;16428;47.836;35.106;2023-03-19T11:17:39;101871.69;;;7.34;100.00
29461;BME280;16428;47.836;35.106;2023-03-19T11:23:14;101861.72;;;7.36;99.78
29461;BME280;16428;47.836;35.106;2023-03-19T11:25:50;101858.19;;;7.15;100.00
29461;BME280;16428;47.836;35.106;2023-03-19T11:28:23;101857.41;;;7.24;100.00
29461;BME280;16428;47.836;35.106;2023-03-19T11:42:10;101854.97;;;7.53;100.00
29461;BME280;16428;47.836;35.106;2023-03-19T11:59:08;101847.59;;;7.45;100.00
29461;BME280;16428;47.836;35.106;2023-03-19T12:02:03;101846.81;;;7.54;100.00
29461;BME280;16428;47.836;35.106;2023-03-19T12:16:48;101842.72;;;7.71;99.76
29461;BME280;16428;47.836;35.106;2023-03-19T12:30:07;101841.34;;;7.76;99.52
29461;BME280;16428;47.836;35.106;2023-03-19T12:35:30;101838.47;;;7.68;100.00
29461;BME280;16428;47.836;35.106;2023-03-19T12:40:40;101836.91;;;7.87;100.00
29461;BME280;16428;47.836;35.106;2023-03-19T12:43:34;101838.81;;;7.75;100.00
29461;BME280;16428;47.836;35.106;2023-03-19T12:48:43;101830.44;;;7.89;100.00
29461;BME280;16428;47.836;35.106;2023-03-19T12:51:17;101833.97;;;7.90;100.00
29461;BME280;16428;47.836;35.106;2023-03-19T12:54:11;101836.72;;;7.79;100.00
29461;BME280;16428;47.836;35.106;2023-03-19T12:57:07;101835.19;;;7.86;100.00
29461;BME280;16428;47.836;35.106;2023-03-19T12:59:57;101822.88;;;7.73;100.00
29461;BME280;16428;47.836;35.106;2023-03-19T13:05:25;101820.34;;;7.72;100.00
29461;BME280;16428;47.836;35.106;2023-03-19T13:10:34;101826.72;;;7.81;100.00
29461;BME280;16428;47.836;35.106;2023-03-19T13:15:56;101820.88;;;7.96;99.42
29461;BME280;16428;47.836;35.106;2023-03-19T13:18:47;101817.91;;;7.90;99.67
29461;BME280;16428;47.836;35.106;2023-03-19T13:21:27;101821.28;;;7.61;100.00
29461;BME280;16428;47.836;35.106;2023-03-19T13:24:27;101809.59;;;7.41;100.00
29461;BME280;16428;47.836;35.106;2023-03-19T13:26:58;101804.69;;;7.67;100.00
29461;BME280;16428;47.836;35.106;2023-03-19T13:29:31;101806.72;;;7.75;100.00
29461;BME280;16428;47.836;35.106;2023-03-19T13:32:22;101809.72;;;7.61;100.00
29461;BME280;16428;47.836;35.106;2023-03-19T13:35:09;101802.22;;;7.75;100.00
29461;BME280;16428;47.836;35.106;2023-03-19T13:37:42;101795.59;;;7.80;100.00
29461;BME280;16428;47.836;35.106;2023-03-19T13:40:54;101802.22;;;7.75;100.00
29461;BME280;16428;47.836;35.106;2023-03-19T13:48:50;101795.75;;;7.78;100.00
29461;BME280;16428;47.836;35.106;2023-03-19T13:59:47;101784.97;;;7.68;100.00
29461;BME280;16428;47.836;35.106;2023-03-19T14:05:00;101783.09;;;7.59;100.00
29461;BME280;16428;47.836;35.106;2023-03-19T14:07:39;101784.13;;;7.68;100.00
29461;BME280;16428;47.836;35.106;2023-03-19T14:10:25;101792.66;;;7.83;100.00
29461;BME280;16428;47.836;35.106;2023-03-19T14:13:03;101785.94;;;7.88;100.00
29461;BME280;16428;47.836;35.106;2023-03-19T14:15:34;101781.72;;;7.95;100.00
29461;BME280;16428;47.836;35.106;2023-03-19T14:18:11;101780.00;;;7.85;100.00
29461;BME280;16428;47.836;35.106;2023-03-19T14:23:25;101783.66;;;7.84;100.00
29461;BME280;16428;47.836;35.106;2023-03-19T14:26:23;101772.56;;;7.88;100.00
29461;BME280;16428;47.836;35.106;2023-03-19T14:29:04;101771.97;;;7.85;100.00
29461;BME280;16428;47.836;35.106;2023-03-19T14:34:15;101768.78;;;7.91;100.00
29461;BME280;16428;47.836;35.106;2023-03-19T14:37:03;101768.50;;;7.94;100.00
29461;BME280;16428;47.836;35.106;2023-03-19T14:39:40;101770.69;;;7.79;100.00
29461;BME280;16428;47.836;35.106;2023-03-19T14:42:29;101773.75;;;7.74;100.00
29461;BME280;16428;47.836;35.106;2023-03-19T14:48:22;101768.50;;;7.94;100.00
29461;BME280;16428;47.836;35.106;2023-03-19T14:51:18;101767.94;;;7.90;100.00
29461;BME280;16428;47.836;35.106;2023-03-19T14:53:52;101759.16;;;7.79;100.00
29461;BME280;16428;47.836;35.106;2023-03-19T14:58:53;101753.25;;;7.85;100.00
29461;BME280;16428;47.836;35.106;2023-03-19T15:01:25;101759.28;;;7.77;100.00
29461;BME280;16428;47.836;35.106;2023-03-19T15:03:59;101768.16;;;7.78;100.00
29461;BME280;16428;47.836;35.106;2023-03-19T15:06:37;101763.00;;;7.95;100.00
29461;BME280;16428;47.836;35.106;2023-03-19T15:09:20;101764.53;;;7.88;100.00